Sault Ste Marie Airport
CYAM : now visible

Airfield :











YOU CAN JOIN US ON...

 
LOGIN :

Register | Disclaimer

   EN    FR    IT 

 









Legend :    VFR   Marginal VFR   IFR   Intensive IFR   Very Intensive IFR
Visi :
Ceiling :
>= 8 km
>= 3000ft
5 to 8 km
1000 to 3000 ft
1500m to 5 km
500 to 1000 ft
800 to 1500m
200 to 500 ft
< 800m
< 200 ft
Symbols :   Thunderstorms  Fog  Heavy snow  Heavy precipitations  Wind > 20 kt






- Airport Elevation : 630 ft
- IATA code : YAM


CYAM - Sault Ste Marie

CURRENT METAR :
  • 160600Z 03002KT 20SM BKN130 BKN250 07/03 A3019 RMK AC6CI1 CI TR SLP228

EXPIRED METARs :
  • 160500Z 25004KT 20SM FEW120 FEW130 FEW230 SCT240 10/03 A3019 RMK AC1AC2CI1CI1 AC TR CI TR SLP227
  • 160400Z 22003KT 20SM FEW120 SCT240 BKN260 10/02 A3018 RMK AC2CI2CI2 SLP225

TAF TAF CYAM
Valid from the 16 at 02:00 until the 16 at 14:00 UTC


160138Z 1602/1614 VRB03KT P6SM FEW100 BKN280
TEMPO 1602/1604 BKN100
FM160400 VRB03KT P6SM BKN100
TEMPO 1604/1612 FEW100
FM161200 VRB03KT P6SM FEW080 RMK NXT FCST BY 160800Z
CZYZ FIR / North America



MET'MAP, your aeronautical weather chart ! - Copyright ORBIFLY December 2007 - Disclaimer

ORBIFLY MET'MAP TEAM :

Programming & Development : Alexandra Zaïnal
Concept & original design : Baudouin d'Aumeries
Assistance for programming : Marc-Olivier Méhu
Technical & hardware support : Manuel Goepfert

Contact : metmap@orbifly.com




SOURCES & CREDITS :

   NOAA       Earth
Advisory